| time (UTC) | temp C | wind direction | speed KPH | gust KPH | rain 1hr cm | rain 24hr cm | rain mn cm | humidity % | barometer mb |
| 20260904200005 | 17 | 290 | 0.0 | 0.0 | 0.00 | 0.28 | 0.28 | 94 | 1014.3 |
| 20260904194500 | 17 | 290 | 0.0 | 0.0 | 0.00 | 0.28 | 0.28 | 94 | 1014.3 |
| 20260904193100 | 17 | 290 | 0.0 | 0.0 | 0.00 | 0.28 | 0.28 | 93 | 1014.5 |
| 20260904191600 | 17 | 290 | 0.0 | 0.0 | 0.00 | 0.28 | 0.28 | 93 | 1014.2 |
| 20260904190100 | 17 | 290 | 0.0 | 0.0 | 0.00 | 0.28 | 0.28 | 93 | 1014.2 |
| 20260904184600 | 17 | 290 | 0.0 | 0.0 | 0.00 | 0.28 | 0.28 | 93 | 1013.8 |
| 20260904183059 | 17 | 290 | 0.0 | 0.0 | 0.00 | 0.28 | 0.28 | 93 | 1013.6 |
| 20260904181558 | 17 | 360 | 0.0 | 0.0 | 0.00 | 0.28 | 0.28 | 93 | 1013.3 |
| 20260904180057 | 17 | 290 | 0.0 | 0.0 | 0.00 | 1.40 | 0.28 | 93 | 1013.5 |
| 20260904180009 | 17 | 290 | 0.0 | 0.0 | 0.00 | 0.28 | 0.28 | 93 | 1013.2 |
| 20260904175608 | 17 | 290 | 0.0 | 0.0 | 0.00 | 1.40 | 0.28 | 93 | 1013.5 |
| 20260904175053 | 17 | 360 | 0.0 | 0.0 | 0.00 | 1.40 | 0.28 | 93 | 1013.4 |
| 20260904174545 | 17 | 360 | 0.0 | 0.0 | 0.00 | 1.40 | 0.28 | 92 | 1013.4 |
| 20260904174053 | 17 | 360 | 0.0 | 0.0 | 0.00 | 1.40 | 0.28 | 92 | 1013.2 |
| 20260904173545 | 17 | 360 | 0.0 | 0.0 | 0.00 | 1.40 | 0.28 | 92 | 1013.2 |
| 20260904173053 | 17 | 360 | 0.0 | 0.0 | 0.00 | 1.40 | 0.28 | 92 | 1013.1 |
| 20260904173007 | 17 | 360 | 0.0 | 0.0 | 0.00 | 0.28 | 0.28 | 92 | 1012.9 |
| 20260904172545 | 17 | 360 | 0.0 | 0.0 | 0.00 | 1.40 | 0.28 | 92 | 1012.9 |
| 20260904172051 | 17 | 360 | 0.0 | 0.0 | 0.00 | 1.40 | 0.28 | 92 | 1012.9 |
| 20260904171643 | 17 | 360 | 0.0 | 0.0 | 0.03 | 0.28 | 0.28 | 92 | 1012.6 |
| 20260904171542 | 17 | 360 | 0.0 | 0.0 | 0.10 | 1.40 | 0.28 | 92 | 1013.0 |
| 20260904171049 | 17 | 360 | 0.0 | 0.0 | 0.10 | 1.40 | 0.28 | 92 | 1013.0 |
| 20260904170601 | 17 | 360 | 0.0 | 0.0 | 0.20 | 1.40 | 0.28 | 92 | 1013.0 |
| 20260904170149 | 17 | 360 | 0.0 | 0.0 | 0.05 | 0.28 | 0.28 | 92 | 1012.7 |
| 20260904170045 | 17 | 360 | 0.0 | 0.0 | 0.30 | 1.40 | 0.28 | 92 | 1013.0 |
| 20260904165557 | 17 | 360 | 0.0 | 0.0 | 0.51 | 1.40 | 0.28 | 92 | 1012.9 |
| 20260904165103 | 17 | 360 | 0.0 | 0.0 | 0.51 | 1.40 | 0.28 | 92 | 1013.0 |
| 20260904164615 | 17 | 360 | 0.0 | 0.0 | 0.51 | 1.40 | 0.28 | 92 | 1012.9 |
| 20260904164042 | 17 | 360 | 0.0 | 0.0 | 0.51 | 1.40 | 0.28 | 91 | 1012.7 |
| 20260904163554 | 17 | 360 | 0.0 | 0.0 | 0.61 | 1.40 | 0.28 | 91 | 1012.8 |
| 20260904163143 | 17 | 360 | 0.0 | 0.0 | 0.13 | 0.28 | 0.28 | 91 | 1012.6 |
| 20260904163042 | 17 | 360 | 0.0 | 0.0 | 0.61 | 1.40 | 0.28 | 91 | 1013.0 |
| 20260904162555 | 17 | 288 | 0.0 | 0.0 | 0.71 | 1.40 | 0.28 | 90 | 1013.0 |
| 20260904162043 | 17 | 360 | 0.0 | 0.0 | 0.99 | 1.40 | 0.28 | 90 | 1012.7 |
| 20260904161554 | 17 | 304 | 0.0 | 0.0 | 1.30 | 1.30 | 0.25 | 90 | 1012.7 |
| 20260904161504 | 17 | 304 | 0.0 | 0.0 | 0.25 | 0.25 | 0.25 | 90 | 1012.4 |
| 20260904161102 | 17 | 290 | 0.0 | 0.0 | 1.30 | 1.30 | 0.25 | 89 | 1012.9 |
| 20260904160613 | 18 | 360 | 0.0 | 0.0 | 1.19 | 1.19 | 0.23 | 89 | 1013.1 |
| 20260904160158 | 17 | 360 | 0.0 | 0.0 | 0.23 | 0.23 | 0.23 | 89 | 1012.6 |
| 20260904160058 | 18 | 342 | 0.0 | 0.0 | 1.09 | 1.09 | 0.23 | 89 | 1013.0 |
| 20260904155551 | 18 | 360 | 0.0 | 0.0 | 0.89 | 0.89 | 0.18 | 89 | 1012.7 |
| 20260904155039 | 18 | 360 | 0.0 | 0.0 | 0.89 | 0.89 | 0.18 | 88 | 1012.6 |
| 20260904154653 | 18 | 360 | 0.0 | 0.0 | 0.18 | 0.18 | 0.18 | 88 | 1012.3 |
| 20260904154551 | 18 | 360 | 0.0 | 0.0 | 0.89 | 0.89 | 0.18 | 88 | 1012.6 |
| 20260904154057 | 18 | 360 | 0.0 | 0.0 | 0.89 | 0.89 | 0.18 | 87 | 1012.6 |
| 20260904153548 | 19 | 250 | 0.0 | 0.0 | 0.79 | 0.79 | 0.15 | 86 | 1012.6 |
| 20260904153158 | 19 | 304 | 0.0 | 0.0 | 0.15 | 0.15 | 0.15 | 85 | 1012.3 |
| 20260904153054 | 20 | 255 | 0.0 | 0.0 | 0.79 | 0.79 | 0.15 | 85 | 1012.6 |
| 20260904152546 | 20 | 360 | 0.0 | 0.0 | 0.71 | 0.71 | 0.15 | 83 | 1012.6 |
| 20260904152113 | 21 | 53 | 0.0 | 0.0 | 0.30 | 0.30 | 0.05 | 83 | 1012.4 |
| 20260904151649 | 21 | 221 | 0.0 | 0.0 | 0.00 | 0.00 | 0.00 | 85 | 1012.0 |
| 20260904151545 | 22 | 302 | 0.0 | 0.0 | 0.00 | 0.00 | 0.00 | 85 | 1012.2 |
| 20260904151054 | 22 | 295 | 0.0 | 0.0 | 0.00 | 0.00 | 0.00 | 84 | 1012.0 |
| 20260904150545 | 22 | 288 | 0.0 | 0.0 | 0.00 | 0.00 | 0.00 | 82 | 1012.0 |
| 20260904150156 | 22 | 284 | 0.0 | 0.0 | 0.00 | 0.00 | 0.00 | 81 | 1011.7 |
| 20260904150054 | 23 | 360 | 0.0 | 0.0 | 0.00 | 0.00 | 0.00 | 81 | 1012.0 |
| 20260904145549 | 23 | 360 | 0.0 | 0.0 | 0.00 | 0.00 | 0.00 | 78 | 1011.8 |
| 20260904145055 | 23 | 290 | 0.0 | 0.0 | 0.00 | 0.00 | 0.00 | 76 | 1011.2 |
| 20260904144646 | 23 | 288 | 0.0 | 0.0 | 0.00 | 0.00 | 0.00 | 76 | 1010.7 |
| 20260904144546 | 23 | 294 | 0.0 | 0.0 | 0.00 | 0.00 | 0.00 | 76 | 1011.1 |
| 20260904144052 | 23 | 360 | 0.0 | 0.0 | 0.00 | 0.00 | 0.00 | 77 | 1011.1 |
| 20260904143543 | 23 | 360 | 0.0 | 0.0 | 0.00 | 0.00 | 0.00 | 77 | 1011.2 |
| 20260904143049 | 23 | 307 | 0.0 | 0.0 | 0.00 | 0.00 | 0.00 | 77 | 1011.1 |
| 20260904143001 | 23 | 315 | 0.0 | 0.0 | 0.00 | 0.00 | 0.00 | 77 | 1010.9 |
| 20260904142600 | 23 | 286 | 0.0 | 0.0 | 0.00 | 0.00 | 0.00 | 77 | 1011.2 |
| 20260904142107 | 23 | 296 | 0.0 | 0.0 | 0.00 | 0.00 | 0.00 | 75 | 1011.3 |
| 20260904141556 | 23 | 292 | 0.0 | 0.0 | 0.00 | 0.00 | 0.00 | 75 | 1011.2 |
| 20260904141508 | 23 | 289 | 0.0 | 0.0 | 0.00 | 0.00 | 0.00 | 75 | 1010.9 |
| 20260904141104 | 23 | 290 | 0.0 | 0.0 | 0.00 | 0.00 | 0.00 | 75 | 1011.2 |
| 20260904140652 | 23 | 304 | 0.0 | 0.0 | 0.00 | 0.00 | 0.00 | 74 | 1011.1 |
| 20260904140023 | 23 | 293 | 0.0 | 0.0 | 0.00 | 0.00 | 0.00 | 74 | 1011.1 |
| 20260904134525 | 23 | 305 | 0.0 | 0.0 | 0.00 | 0.00 | 0.00 | 73 | 1011.1 |
| 20260904133122 | 24 | 298 | 0.0 | 0.0 | 0.00 | 0.00 | 0.00 | 74 | 1010.8 |
| 20260904131521 | 23 | 296 | 0.0 | 0.0 | 0.00 | 0.00 | 0.00 | 75 | 1011.0 |
| 20260904130021 | 23 | 295 | 0.0 | 0.0 | 0.00 | 0.00 | 0.00 | 74 | 1010.8 |
| 20260904124520 | 24 | 284 | 0.0 | 0.0 | 0.00 | 0.00 | 0.00 | 73 | 1010.9 |
| 20260904123019 | 24 | 286 | 0.0 | 0.0 | 0.00 | 0.00 | 0.00 | 72 | 1010.9 |
| 20260904121519 | 24 | 360 | 0.0 | 0.0 | 0.00 | 0.00 | 0.00 | 72 | 1010.9 |
| 20260904120022 | 24 | 287 | 0.0 | 0.0 | 0.00 | 0.00 | 0.00 | 72 | 1010.9 |
| 20260904114517 | 24 | 294 | 0.0 | 0.0 | 0.00 | 0.00 | 0.00 | 72 | 1011.0 |
| 20260904113013 | 24 | 295 | 0.0 | 0.0 | 0.00 | 0.00 | 0.00 | 73 | 1011.1 |
| 20260904111517 | 23 | 306 | 0.0 | 0.0 | 0.00 | 0.00 | 0.00 | 74 | 1011.3 |
| 20260904110012 | 23 | 294 | 0.0 | 0.0 | 0.00 | 0.00 | 0.00 | 75 | 1011.5 |
| 20260904104511 | 23 | 293 | 0.0 | 0.0 | 0.00 | 0.00 | 0.00 | 74 | 1011.4 |
| 20260904103011 | 23 | 287 | 0.0 | 0.0 | 0.00 | 0.00 | 0.00 | 74 | 1011.3 |
| 20260904101517 | 23 | 290 | 0.0 | 0.0 | 0.00 | 0.00 | 0.00 | 74 | 1011.2 |
| 20260904100008 | 24 | 291 | 0.0 | 0.0 | 0.00 | 0.03 | 0.00 | 75 | 1011.3 |
| 20260904094503 | 23 | 290 | 0.0 | 0.0 | 0.00 | 0.03 | 0.00 | 78 | 1011.5 |
| 20260904093100 | 23 | 360 | 0.0 | 0.0 | 0.00 | 0.03 | 0.00 | 80 | 1011.7 |
| 20260904091557 | 22 | 295 | 0.0 | 0.0 | 0.00 | 0.03 | 0.00 | 80 | 1011.8 |
| 20260904090056 | 22 | 288 | 0.0 | 0.0 | 0.00 | 0.05 | 0.00 | 80 | 1012.0 |
| 20260904084600 | 22 | 360 | 0.0 | 0.0 | 0.00 | 0.05 | 0.00 | 81 | 1012.3 |
| 20260904083550 | 22 | 296 | 0.0 | 0.0 | 0.00 | 0.30 | 0.00 | 80 | 1012.5 |
| 20260904083144 | 22 | 360 | 0.0 | 0.0 | 0.00 | 0.05 | 0.00 | 80 | 1012.2 |
| 20260904083042 | 22 | 291 | 0.0 | 0.0 | 0.00 | 0.30 | 0.00 | 80 | 1012.4 |
| 20260904082555 | 22 | 288 | 0.0 | 0.0 | 0.00 | 0.30 | 0.00 | 80 | 1012.4 |
| 20260904082101 | 22 | 360 | 0.0 | 0.0 | 0.00 | 0.30 | 0.00 | 81 | 1012.4 |
| 20260904081553 | 22 | 360 | 0.0 | 0.0 | 0.00 | 0.30 | 0.00 | 81 | 1012.3 |
| 20260904081504 | 22 | 292 | 0.0 | 0.0 | 0.00 | 0.05 | 0.00 | 81 | 1012.1 |
| 20260904081101 | 22 | 360 | 0.0 | 0.0 | 0.00 | 0.30 | 0.00 | 82 | 1012.3 |
| 20260904080652 | 22 | 305 | 0.0 | 0.0 | 0.00 | 0.30 | 0.00 | 82 | 1012.3 |
| 20260904080012 | 22 | 360 | 0.0 | 0.0 | 0.00 | 0.05 | 0.00 | 82 | 1012.0 |
| 20260904074508 | 22 | 360 | 0.0 | 0.0 | 0.00 | 0.05 | 0.00 | 84 | 1012.0 |
| 20260904073006 | 21 | 291 | 0.0 | 0.0 | 0.00 | 0.05 | 0.00 | 85 | 1012.2 |
| 20260904071504 | 21 | 287 | 0.0 | 0.0 | 0.00 | 0.05 | 0.00 | 85 | 1012.4 |
| 20260904070008 | 21 | 360 | 0.0 | 0.0 | 0.00 | 0.05 | 0.00 | 86 | 1012.6 |
| 20260904064600 | 21 | 360 | 0.0 | 0.0 | 0.00 | 0.05 | 0.00 | 87 | 1012.8 |
| 20260904063114 | 21 | 360 | 0.0 | 0.0 | 0.00 | 0.05 | 0.00 | 86 | 1012.8 |
| 20260904061557 | 20 | 360 | 0.0 | 0.0 | 0.00 | 0.05 | 0.00 | 87 | 1012.9 |
| 20260904060056 | 20 | 297 | 0.0 | 0.0 | 0.00 | 0.05 | 0.00 | 87 | 1013.1 |
| 20260904054556 | 20 | 284 | 0.0 | 0.0 | 0.00 | 0.05 | 0.00 | 88 | 1013.1 |
| 20260904053105 | 20 | 287 | 0.0 | 0.0 | 0.00 | 0.05 | 0.00 | 88 | 1013.1 |
| 20260904051552 | 20 | 279 | 0.0 | 0.0 | 0.00 | 0.05 | 0.00 | 88 | 1013.3 |
| 20260904050053 | 20 | 360 | 0.0 | 0.0 | 0.00 | 0.05 | 0.00 | 88 | 1013.2 |
| 20260904044558 | 20 | 360 | 0.0 | 0.0 | 0.00 | 0.05 | 0.00 | 87 | 1013.3 |
| 20260904043056 | 20 | 289 | 0.0 | 0.0 | 0.00 | 0.05 | 0.00 | 87 | 1013.4 |
| 20260904041548 | 20 | 295 | 0.0 | 0.0 | 0.00 | 0.05 | 0.00 | 87 | 1013.6 |
| 20260904040047 | 20 | 286 | 0.0 | 0.0 | 0.00 | 0.05 | 0.00 | 87 | 1013.6 |
| 20260904034545 | 20 | 360 | 0.0 | 0.0 | 0.00 | 0.05 | 0.00 | 88 | 1013.8 |
| 20260904033045 | 20 | 288 | 0.0 | 0.0 | 0.00 | 0.05 | 0.00 | 88 | 1013.8 |
| 20260904031546 | 20 | 292 | 0.0 | 0.0 | 0.00 | 0.05 | 0.00 | 88 | 1014.1 |
| 20260904030055 | 20 | 286 | 0.0 | 0.0 | 0.00 | 0.05 | 0.00 | 88 | 1014.1 |
| 20260904024541 | 20 | 360 | 0.0 | 0.0 | 0.00 | 0.05 | 0.00 | 88 | 1014.3 |
| 20260904023039 | 20 | 360 | 0.0 | 0.0 | 0.00 | 0.05 | 0.00 | 89 | 1014.4 |
| 20260904021549 | 20 | 360 | 0.0 | 0.0 | 0.00 | 0.05 | 0.00 | 89 | 1015.0 |
| 20260904020036 | 20 | 360 | 0.0 | 0.0 | 0.00 | 0.05 | 0.00 | 89 | 1015.0 |
| 20260904014537 | 20 | 296 | 0.0 | 0.0 | 0.00 | 0.05 | 0.00 | 89 | 1015.1 |
| 20260904013034 | 20 | 287 | 0.0 | 0.0 | 0.00 | 0.05 | 0.00 | 89 | 1015.3 |
| 20260904011530 | 20 | 286 | 0.0 | 0.0 | 0.00 | 0.05 | 0.00 | 90 | 1015.3 |
| 20260904010030 | 20 | 289 | 0.0 | 0.0 | 0.00 | 0.05 | 0.00 | 90 | 1015.4 |
| 20260904004529 | 20 | 360 | 0.0 | 0.0 | 0.00 | 0.05 | 0.00 | 90 | 1015.4 |
| 20260904003028 | 20 | 360 | 0.0 | 0.0 | 0.00 | 0.05 | 0.00 | 90 | 1015.5 |
| 20260904001526 | 20 | 286 | 0.0 | 0.0 | 0.00 | 0.05 | 0.00 | 90 | 1015.7 |
| 20260904000025 | 20 | 360 | 0.0 | 0.0 | 0.00 | 0.05 | 0.00 | 89 | 1015.8 |
| 20260903234524 | 20 | 293 | 0.0 | 0.0 | 0.00 | 0.05 | 0.00 | 89 | 1016.1 |
| 20260903233033 | 20 | 360 | 0.0 | 0.0 | 0.00 | 0.05 | 0.00 | 89 | 1016.2 |
| 20260903231538 | 20 | 288 | 0.0 | 0.0 | 0.00 | 0.05 | 0.00 | 88 | 1016.3 |
| 20260903230021 | 20 | 360 | 0.0 | 0.0 | 0.00 | 0.05 | 0.00 | 88 | 1016.2 |
| 20260903224520 | 20 | 360 | 0.0 | 0.0 | 0.00 | 0.05 | 0.00 | 88 | 1016.4 |
| 20260903223018 | 20 | 360 | 0.0 | 0.0 | 0.00 | 0.05 | 0.00 | 89 | 1016.5 |
| 20260903221518 | 20 | 287 | 0.0 | 0.0 | 0.00 | 0.05 | 0.00 | 89 | 1016.5 |
| 20260903220016 | 20 | 287 | 0.0 | 0.0 | 0.00 | 0.05 | 0.05 | 90 | 1016.7 |
| 20260903214515 | 20 | 296 | 0.0 | 0.0 | 0.00 | 0.05 | 0.05 | 89 | 1016.9 |
| 20260903213014 | 20 | 360 | 0.0 | 0.0 | 0.00 | 0.05 | 0.05 | 89 | 1017.0 |
| 20260903211514 | 20 | 360 | 0.0 | 0.0 | 0.00 | 0.05 | 0.05 | 88 | 1017.0 |
| 20260903210014 | 21 | 286 | 0.0 | 0.0 | 0.00 | 0.05 | 0.05 | 87 | 1017.1 |
| 20260903204514 | 21 | 360 | 0.0 | 0.0 | 0.00 | 0.05 | 0.05 | 86 | 1017.2 |
| 20260903203013 | 21 | 360 | 0.0 | 0.0 | 0.00 | 0.05 | 0.05 | 85 | 1017.2 |
| 20260903201512 | 21 | 360 | 0.0 | 0.0 | 0.00 | 0.05 | 0.05 | 85 | 1017.1 |
| 20260903200012 | 21 | 360 | 0.0 | 0.0 | 0.00 | 0.05 | 0.05 | 84 | 1017.2 |